Main page
METAR-TAF:

METAR-TAF

Airports :

Piacenza, Italy

Piacenza Air Base

latitude: 44-55N, longitude: 009-44E, elevation: 134 m

Current weather observation

The report was made 26 minutes ago, at 17:55 UTC
Wind 1 kt from the North
Temperature 6°C
Humidity 93%
Pressure 1022 hPa
Visibility: 4000 m
mist

METAR: LIMS 201755Z 35001KT 4000 BR NSC 06/05 Q1022 RMK SCT SCT150 VIS MIN 4000 WIND THR30 31001KT GRN

Time: 19:21 (18:21 UTC)

Forecast

The report was made 1 hour and 21 minutes ago, at 17:00 UTC
Forecast valid from 20 at 18 UTC to 21 at 03 UTC
Wind 3 kt from variable directions
Visibility: 2000 m
mist
Temporary
from 20 at 18 UTC to 21 at 03 UTC
Visibility: 0500 m
Broken clouds at a height of 500 ft
fog

TAF: LIMS 201700Z 2018/2103 VRB03KT 2000 BR NSC TEMPO 2018/2103 0500 FG BKN005

Weather observations and forecasts of more than 4000 airports (METAR and TAF reports).

The available stations are represented by yellow and red dots on the map.

Hover mouse over dot to see the name of the station.

Then click to see weather observations and forecasts.

To change the map : click on the green buttons with a black cross to zoom in, on the green button with a dash to zoom out, or on the green arrows for adjacent maps.


METAR-TAF: